sensor_id;sensor_type;location;lat;lon;timestamp;temperature;humidity
14122;DHT22;7139;48.114;11.442;2022-12-16T00:02:14;1.90;99.90
14122;DHT22;7139;48.114;11.442;2022-12-16T00:04:41;1.90;99.90
14122;DHT22;7139;48.114;11.442;2022-12-16T00:07:08;1.90;99.90
14122;DHT22;7139;48.114;11.442;2022-12-16T00:09:36;1.90;99.90
14122;DHT22;7139;48.114;11.442;2022-12-16T00:12:04;1.90;99.90
14122;DHT22;7139;48.114;11.442;2022-12-16T00:14:31;1.90;99.90
14122;DHT22;7139;48.114;11.442;2022-12-16T00:16:58;1.90;99.90
14122;DHT22;7139;48.114;11.442;2022-12-16T00:19:25;1.90;99.90
14122;DHT22;7139;48.114;11.442;2022-12-16T00:21:51;1.90;99.90
14122;DHT22;7139;48.114;11.442;2022-12-16T00:24:18;1.90;99.90
14122;DHT22;7139;48.114;11.442;2022-12-16T00:26:45;1.90;99.90
14122;DHT22;7139;48.114;11.442;2022-12-16T00:29:13;1.90;99.90
14122;DHT22;7139;48.114;11.442;2022-12-16T00:31:40;1.90;99.90
14122;DHT22;7139;48.114;11.442;2022-12-16T00:34:06;1.90;99.90
14122;DHT22;7139;48.114;11.442;2022-12-16T00:36:33;1.90;99.90
14122;DHT22;7139;48.114;11.442;2022-12-16T00:39:00;1.90;99.90
14122;DHT22;7139;48.114;11.442;2022-12-16T00:41:27;1.90;99.90
14122;DHT22;7139;48.114;11.442;2022-12-16T00:43:54;1.90;99.90
14122;DHT22;7139;48.114;11.442;2022-12-16T00:46:22;1.90;99.90
14122;DHT22;7139;48.114;11.442;2022-12-16T00:48:49;1.80;99.90
14122;DHT22;7139;48.114;11.442;2022-12-16T00:51:16;1.80;99.90
14122;DHT22;7139;48.114;11.442;2022-12-16T00:53:42;1.80;99.90
14122;DHT22;7139;48.114;11.442;2022-12-16T00:56:11;1.80;99.90
14122;DHT22;7139;48.114;11.442;2022-12-16T00:58:39;1.80;99.90
14122;DHT22;7139;48.114;11.442;2022-12-16T01:01:06;1.90;99.90
14122;DHT22;7139;48.114;11.442;2022-12-16T01:03:35;1.90;99.90
14122;DHT22;7139;48.114;11.442;2022-12-16T01:06:07;1.90;99.90
14122;DHT22;7139;48.114;11.442;2022-12-16T01:08:34;1.90;99.90
14122;DHT22;7139;48.114;11.442;2022-12-16T01:11:00;1.90;99.90
14122;DHT22;7139;48.114;11.442;2022-12-16T01:13:28;1.90;99.90
14122;DHT22;7139;48.114;11.442;2022-12-16T01:15:57;1.90;99.90
14122;DHT22;7139;48.114;11.442;2022-12-16T01:18:24;1.90;99.90
14122;DHT22;7139;48.114;11.442;2022-12-16T01:20:52;1.90;99.90
14122;DHT22;7139;48.114;11.442;2022-12-16T01:23:19;1.90;99.90
14122;DHT22;7139;48.114;11.442;2022-12-16T01:25:58;1.80;99.90
14122;DHT22;7139;48.114;11.442;2022-12-16T01:28:25;1.80;99.90
14122;DHT22;7139;48.114;11.442;2022-12-16T01:30:54;1.80;99.90
14122;DHT22;7139;48.114;11.442;2022-12-16T01:33:26;1.70;99.90
14122;DHT22;7139;48.114;11.442;2022-12-16T01:35:59;1.70;99.90
14122;DHT22;7139;48.114;11.442;2022-12-16T01:38:26;1.70;99.90
14122;DHT22;7139;48.114;11.442;2022-12-16T01:40:53;1.70;99.90
14122;DHT22;7139;48.114;11.442;2022-12-16T01:43:23;1.70;99.90
14122;DHT22;7139;48.114;11.442;2022-12-16T01:45:52;1.70;99.90
14122;DHT22;7139;48.114;11.442;2022-12-16T01:48:24;1.70;99.90
14122;DHT22;7139;48.114;11.442;2022-12-16T01:51:02;1.80;99.90
14122;DHT22;7139;48.114;11.442;2022-12-16T01:53:31;1.80;99.90
14122;DHT22;7139;48.114;11.442;2022-12-16T01:55:59;1.80;99.90
14122;DHT22;7139;48.114;11.442;2022-12-16T01:58:30;1.80;99.90
14122;DHT22;7139;48.114;11.442;2022-12-16T02:00:58;1.80;99.90
14122;DHT22;7139;48.114;11.442;2022-12-16T02:03:25;1.80;99.90
14122;DHT22;7139;48.114;11.442;2022-12-16T02:05:53;1.80;99.90
14122;DHT22;7139;48.114;11.442;2022-12-16T02:08:21;1.80;99.90
14122;DHT22;7139;48.114;11.442;2022-12-16T02:11:07;1.80;99.90
14122;DHT22;7139;48.114;11.442;2022-12-16T02:13:48;1.80;99.90
14122;DHT22;7139;48.114;11.442;2022-12-16T02:16:25;1.80;99.90
14122;DHT22;7139;48.114;11.442;2022-12-16T02:19:01;1.80;99.90
14122;DHT22;7139;48.114;11.442;2022-12-16T02:21:41;1.80;99.90
14122;DHT22;7139;48.114;11.442;2022-12-16T02:24:39;1.80;99.90
14122;DHT22;7139;48.114;11.442;2022-12-16T02:27:38;1.70;99.90
14122;DHT22;7139;48.114;11.442;2022-12-16T02:35:58;1.80;99.90
14122;DHT22;7139;48.114;11.442;2022-12-16T02:38:32;1.70;99.90
14122;DHT22;7139;48.114;11.442;2022-12-16T02:41:02;1.70;99.90
14122;DHT22;7139;48.114;11.442;2022-12-16T02:43:48;1.70;99.90
14122;DHT22;7139;48.114;11.442;2022-12-16T02:46:16;1.70;99.90
14122;DHT22;7139;48.114;11.442;2022-12-16T02:48:45;1.80;99.90
14122;DHT22;7139;48.114;11.442;2022-12-16T02:51:12;1.80;99.90
14122;DHT22;7139;48.114;11.442;2022-12-16T02:53:41;1.80;99.90
14122;DHT22;7139;48.114;11.442;2022-12-16T02:56:27;1.80;99.90
14122;DHT22;7139;48.114;11.442;2022-12-16T02:59:07;1.80;99.90
14122;DHT22;7139;48.114;11.442;2022-12-16T03:01:36;1.80;99.90
14122;DHT22;7139;48.114;11.442;2022-12-16T03:04:09;1.70;99.90
14122;DHT22;7139;48.114;11.442;2022-12-16T03:06:40;1.80;99.90
14122;DHT22;7139;48.114;11.442;2022-12-16T03:09:11;1.80;99.90
14122;DHT22;7139;48.114;11.442;2022-12-16T03:11:41;1.80;99.90
14122;DHT22;7139;48.114;11.442;2022-12-16T03:14:12;1.70;99.90
14122;DHT22;7139;48.114;11.442;2022-12-16T03:16:41;1.70;99.90
14122;DHT22;7139;48.114;11.442;2022-12-16T03:19:11;1.70;99.90
14122;DHT22;7139;48.114;11.442;2022-12-16T03:21:42;1.60;99.90
14122;DHT22;7139;48.114;11.442;2022-12-16T03:24:12;1.40;99.90
14122;DHT22;7139;48.114;11.442;2022-12-16T03:26:43;1.40;99.90
14122;DHT22;7139;48.114;11.442;2022-12-16T03:29:20;1.30;99.90
14122;DHT22;7139;48.114;11.442;2022-12-16T03:31:54;1.20;99.90
14122;DHT22;7139;48.114;11.442;2022-12-16T03:34:32;1.10;99.90
14122;DHT22;7139;48.114;11.442;2022-12-16T03:37:02;1.10;99.90
14122;DHT22;7139;48.114;11.442;2022-12-16T03:39:32;0.90;99.90
14122;DHT22;7139;48.114;11.442;2022-12-16T03:42:00;0.90;99.90
14122;DHT22;7139;48.114;11.442;2022-12-16T03:44:28;0.80;99.90
14122;DHT22;7139;48.114;11.442;2022-12-16T03:46:55;0.70;99.90
14122;DHT22;7139;48.114;11.442;2022-12-16T03:49:22;0.70;99.90
14122;DHT22;7139;48.114;11.442;2022-12-16T03:51:51;0.70;99.90
14122;DHT22;7139;48.114;11.442;2022-12-16T03:54:18;0.70;99.90
14122;DHT22;7139;48.114;11.442;2022-12-16T03:56:45;0.70;99.90
14122;DHT22;7139;48.114;11.442;2022-12-16T03:59:12;0.70;99.90
14122;DHT22;7139;48.114;11.442;2022-12-16T04:01:39;0.70;99.90
14122;DHT22;7139;48.114;11.442;2022-12-16T04:04:06;0.60;99.90
14122;DHT22;7139;48.114;11.442;2022-12-16T04:06:33;0.70;99.90
14122;DHT22;7139;48.114;11.442;2022-12-16T04:09:01;0.60;99.90
14122;DHT22;7139;48.114;11.442;2022-12-16T04:11:28;0.70;99.90
14122;DHT22;7139;48.114;11.442;2022-12-16T04:14:12;0.70;99.90
14122;DHT22;7139;48.114;11.442;2022-12-16T04:16:57;0.70;99.90
14122;DHT22;7139;48.114;11.442;2022-12-16T04:19:42;0.70;99.90
14122;DHT22;7139;48.114;11.442;2022-12-16T04:22:30;0.70;99.90
14122;DHT22;7139;48.114;11.442;2022-12-16T04:25:19;0.70;99.90
14122;DHT22;7139;48.114;11.442;2022-12-16T04:27:46;0.70;99.90
14122;DHT22;7139;48.114;11.442;2022-12-16T04:30:14;0.60;99.90
14122;DHT22;7139;48.114;11.442;2022-12-16T04:32:50;0.70;99.90
14122;DHT22;7139;48.114;11.442;2022-12-16T04:35:35;0.70;99.90
14122;DHT22;7139;48.114;11.442;2022-12-16T04:38:19;0.70;99.90
14122;DHT22;7139;48.114;11.442;2022-12-16T04:41:05;0.70;99.90
14122;DHT22;7139;48.114;11.442;2022-12-16T04:43:49;0.80;99.90
14122;DHT22;7139;48.114;11.442;2022-12-16T04:46:34;0.80;99.90
14122;DHT22;7139;48.114;11.442;2022-12-16T04:49:18;0.80;99.90
14122;DHT22;7139;48.114;11.442;2022-12-16T04:52:02;0.90;99.90
14122;DHT22;7139;48.114;11.442;2022-12-16T04:54:46;0.90;99.90
14122;DHT22;7139;48.114;11.442;2022-12-16T04:57:32;0.80;99.90
14122;DHT22;7139;48.114;11.442;2022-12-16T05:00:17;0.70;99.90
14122;DHT22;7139;48.114;11.442;2022-12-16T05:03:01;0.80;99.90
14122;DHT22;7139;48.114;11.442;2022-12-16T05:05:45;0.90;99.90
14122;DHT22;7139;48.114;11.442;2022-12-16T05:08:29;0.90;99.90
14122;DHT22;7139;48.114;11.442;2022-12-16T05:11:13;0.90;99.90
14122;DHT22;7139;48.114;11.442;2022-12-16T05:13:59;0.80;99.90
14122;DHT22;7139;48.114;11.442;2022-12-16T05:16:43;0.80;99.90
14122;DHT22;7139;48.114;11.442;2022-12-16T05:19:27;0.80;99.90
14122;DHT22;7139;48.114;11.442;2022-12-16T05:22:11;0.80;99.90
14122;DHT22;7139;48.114;11.442;2022-12-16T05:24:55;0.70;99.90
14122;DHT22;7139;48.114;11.442;2022-12-16T05:27:40;0.70;99.90
14122;DHT22;7139;48.114;11.442;2022-12-16T05:30:25;0.70;99.90
14122;DHT22;7139;48.114;11.442;2022-12-16T05:33:10;0.60;99.90
14122;DHT22;7139;48.114;11.442;2022-12-16T05:35:54;0.70;99.90
14122;DHT22;7139;48.114;11.442;2022-12-16T05:38:38;0.70;99.90
14122;DHT22;7139;48.114;11.442;2022-12-16T05:41:22;0.70;99.90
14122;DHT22;7139;48.114;11.442;2022-12-16T05:44:06;0.70;99.90
14122;DHT22;7139;48.114;11.442;2022-12-16T05:46:52;0.60;99.90
14122;DHT22;7139;48.114;11.442;2022-12-16T05:49:36;0.60;99.90
14122;DHT22;7139;48.114;11.442;2022-12-16T05:52:21;0.60;99.90
14122;DHT22;7139;48.114;11.442;2022-12-16T05:55:05;0.60;99.90
14122;DHT22;7139;48.114;11.442;2022-12-16T05:57:50;0.60;99.90
14122;DHT22;7139;48.114;11.442;2022-12-16T06:00:35;0.60;99.90
14122;DHT22;7139;48.114;11.442;2022-12-16T06:03:21;0.60;99.90
14122;DHT22;7139;48.114;11.442;2022-12-16T06:06:05;0.60;99.90
14122;DHT22;7139;48.114;11.442;2022-12-16T06:08:50;0.60;99.90
14122;DHT22;7139;48.114;11.442;2022-12-16T06:11:49;0.70;99.90
14122;DHT22;7139;48.114;11.442;2022-12-16T06:14:33;0.70;99.90
14122;DHT22;7139;48.114;11.442;2022-12-16T06:17:14;0.70;99.90
14122;DHT22;7139;48.114;11.442;2022-12-16T06:19:59;0.70;99.90
14122;DHT22;7139;48.114;11.442;2022-12-16T06:22:49;0.60;99.90
14122;DHT22;7139;48.114;11.442;2022-12-16T06:25:34;0.60;99.90
14122;DHT22;7139;48.114;11.442;2022-12-16T06:28:18;0.50;99.90
14122;DHT22;7139;48.114;11.442;2022-12-16T06:31:02;0.50;99.90
14122;DHT22;7139;48.114;11.442;2022-12-16T06:33:46;0.50;99.90
14122;DHT22;7139;48.114;11.442;2022-12-16T06:36:31;0.50;99.90
14122;DHT22;7139;48.114;11.442;2022-12-16T06:39:15;0.50;99.90
14122;DHT22;7139;48.114;11.442;2022-12-16T06:41:59;0.50;99.90
14122;DHT22;7139;48.114;11.442;2022-12-16T06:44:44;0.40;99.90
14122;DHT22;7139;48.114;11.442;2022-12-16T06:47:27;0.40;99.90
14122;DHT22;7139;48.114;11.442;2022-12-16T06:50:12;0.40;99.90
14122;DHT22;7139;48.114;11.442;2022-12-16T06:52:57;0.50;99.90
14122;DHT22;7139;48.114;11.442;2022-12-16T06:55:42;0.50;99.90
14122;DHT22;7139;48.114;11.442;2022-12-16T06:58:26;0.50;99.90
14122;DHT22;7139;48.114;11.442;2022-12-16T07:01:10;0.40;99.90
14122;DHT22;7139;48.114;11.442;2022-12-16T07:03:54;0.40;99.90
14122;DHT22;7139;48.114;11.442;2022-12-16T07:06:38;0.40;99.90
14122;DHT22;7139;48.114;11.442;2022-12-16T07:09:23;0.40;99.90
14122;DHT22;7139;48.114;11.442;2022-12-16T07:12:08;0.40;99.90
14122;DHT22;7139;48.114;11.442;2022-12-16T07:14:52;0.50;99.90
14122;DHT22;7139;48.114;11.442;2022-12-16T07:17:38;0.50;99.90
14122;DHT22;7139;48.114;11.442;2022-12-16T07:20:23;0.40;99.90
14122;DHT22;7139;48.114;11.442;2022-12-16T07:23:07;0.40;99.90
14122;DHT22;7139;48.114;11.442;2022-12-16T07:25:53;0.50;99.90
14122;DHT22;7139;48.114;11.442;2022-12-16T07:28:37;0.40;99.90
14122;DHT22;7139;48.114;11.442;2022-12-16T07:31:23;0.30;99.90
14122;DHT22;7139;48.114;11.442;2022-12-16T07:34:08;0.20;99.90
14122;DHT22;7139;48.114;11.442;2022-12-16T07:36:52;0.20;99.90
14122;DHT22;7139;48.114;11.442;2022-12-16T07:39:36;0.30;99.90
14122;DHT22;7139;48.114;11.442;2022-12-16T07:42:21;0.30;99.90
14122;DHT22;7139;48.114;11.442;2022-12-16T07:45:06;0.40;99.90
14122;DHT22;7139;48.114;11.442;2022-12-16T07:47:50;0.40;99.90
14122;DHT22;7139;48.114;11.442;2022-12-16T07:50:35;0.20;99.90
14122;DHT22;7139;48.114;11.442;2022-12-16T07:53:20;0.10;99.90
14122;DHT22;7139;48.114;11.442;2022-12-16T07:56:05;0.20;99.90
14122;DHT22;7139;48.114;11.442;2022-12-16T07:58:52;0.10;99.90
14122;DHT22;7139;48.114;11.442;2022-12-16T08:01:36;0.10;99.90
14122;DHT22;7139;48.114;11.442;2022-12-16T08:04:20;0.10;99.90
14122;DHT22;7139;48.114;11.442;2022-12-16T08:07:04;0.20;99.90
14122;DHT22;7139;48.114;11.442;2022-12-16T08:09:49;0.10;99.90
14122;DHT22;7139;48.114;11.442;2022-12-16T08:12:33;0.20;99.90
14122;DHT22;7139;48.114;11.442;2022-12-16T08:15:19;0.20;99.90
14122;DHT22;7139;48.114;11.442;2022-12-16T08:18:03;0.20;99.90
14122;DHT22;7139;48.114;11.442;2022-12-16T08:20:47;0.30;99.90
14122;DHT22;7139;48.114;11.442;2022-12-16T08:23:31;0.30;99.90
14122;DHT22;7139;48.114;11.442;2022-12-16T08:26:15;0.40;99.90
14122;DHT22;7139;48.114;11.442;2022-12-16T08:28:59;0.40;99.90
14122;DHT22;7139;48.114;11.442;2022-12-16T08:31:44;0.40;99.90
14122;DHT22;7139;48.114;11.442;2022-12-16T08:34:28;0.30;99.90
14122;DHT22;7139;48.114;11.442;2022-12-16T08:37:13;0.30;99.90
14122;DHT22;7139;48.114;11.442;2022-12-16T08:39:57;0.40;99.90
14122;DHT22;7139;48.114;11.442;2022-12-16T08:42:41;0.40;99.90
14122;DHT22;7139;48.114;11.442;2022-12-16T08:45:25;0.40;99.90
14122;DHT22;7139;48.114;11.442;2022-12-16T08:48:13;0.40;99.90
14122;DHT22;7139;48.114;11.442;2022-12-16T08:51:00;0.50;99.90
14122;DHT22;7139;48.114;11.442;2022-12-16T08:53:44;0.60;99.90
14122;DHT22;7139;48.114;11.442;2022-12-16T08:56:28;0.60;99.90
14122;DHT22;7139;48.114;11.442;2022-12-16T08:59:13;0.60;99.90
14122;DHT22;7139;48.114;11.442;2022-12-16T09:02:05;0.60;99.90
14122;DHT22;7139;48.114;11.442;2022-12-16T09:04:51;0.60;99.90
14122;DHT22;7139;48.114;11.442;2022-12-16T09:07:35;0.70;99.90
14122;DHT22;7139;48.114;11.442;2022-12-16T09:10:19;0.70;99.90
14122;DHT22;7139;48.114;11.442;2022-12-16T09:13:06;0.70;99.90
14122;DHT22;7139;48.114;11.442;2022-12-16T09:15:51;0.70;99.90
14122;DHT22;7139;48.114;11.442;2022-12-16T09:18:35;0.70;99.90
14122;DHT22;7139;48.114;11.442;2022-12-16T09:21:21;0.60;99.90
14122;DHT22;7139;48.114;11.442;2022-12-16T09:24:06;0.50;99.90
14122;DHT22;7139;48.114;11.442;2022-12-16T09:26:50;0.60;99.90
14122;DHT22;7139;48.114;11.442;2022-12-16T09:29:35;0.60;99.90
14122;DHT22;7139;48.114;11.442;2022-12-16T09:32:22;0.40;99.90
14122;DHT22;7139;48.114;11.442;2022-12-16T09:35:06;0.30;99.90
14122;DHT22;7139;48.114;11.442;2022-12-16T09:37:52;0.40;99.90
14122;DHT22;7139;48.114;11.442;2022-12-16T09:40:37;0.50;99.90
14122;DHT22;7139;48.114;11.442;2022-12-16T09:43:37;0.40;99.90
14122;DHT22;7139;48.114;11.442;2022-12-16T09:46:27;0.50;99.90
14122;DHT22;7139;48.114;11.442;2022-12-16T09:49:18;0.50;99.90
14122;DHT22;7139;48.114;11.442;2022-12-16T09:52:07;0.40;99.90
14122;DHT22;7139;48.114;11.442;2022-12-16T09:54:56;0.10;99.90
14122;DHT22;7139;48.114;11.442;2022-12-16T09:57:41;0.20;99.90
14122;DHT22;7139;48.114;11.442;2022-12-16T10:00:28;0.20;99.90
14122;DHT22;7139;48.114;11.442;2022-12-16T10:03:17;0.20;99.90
14122;DHT22;7139;48.114;11.442;2022-12-16T10:06:08;0.30;99.90
14122;DHT22;7139;48.114;11.442;2022-12-16T10:09:00;0.20;99.90
14122;DHT22;7139;48.114;11.442;2022-12-16T10:11:54;0.30;99.90
14122;DHT22;7139;48.114;11.442;2022-12-16T10:14:48;0.40;99.90
14122;DHT22;7139;48.114;11.442;2022-12-16T10:17:36;0.40;99.90
14122;DHT22;7139;48.114;11.442;2022-12-16T10:20:29;0.30;99.90
14122;DHT22;7139;48.114;11.442;2022-12-16T10:23:24;0.30;99.90
14122;DHT22;7139;48.114;11.442;2022-12-16T10:26:15;0.40;99.90
14122;DHT22;7139;48.114;11.442;2022-12-16T10:29:05;0.40;99.90
14122;DHT22;7139;48.114;11.442;2022-12-16T10:31:55;0.40;99.90
14122;DHT22;7139;48.114;11.442;2022-12-16T10:34:50;0.50;99.90
14122;DHT22;7139;48.114;11.442;2022-12-16T10:37:39;0.50;99.90
14122;DHT22;7139;48.114;11.442;2022-12-16T10:40:26;0.60;99.90
14122;DHT22;7139;48.114;11.442;2022-12-16T10:43:15;0.70;99.90
14122;DHT22;7139;48.114;11.442;2022-12-16T10:46:05;0.50;99.90
14122;DHT22;7139;48.114;11.442;2022-12-16T10:48:52;0.50;99.90
14122;DHT22;7139;48.114;11.442;2022-12-16T10:51:36;0.50;99.90
14122;DHT22;7139;48.114;11.442;2022-12-16T10:54:29;0.50;99.90
14122;DHT22;7139;48.114;11.442;2022-12-16T10:57:23;0.50;99.90
14122;DHT22;7139;48.114;11.442;2022-12-16T11:00:13;0.50;99.90
14122;DHT22;7139;48.114;11.442;2022-12-16T11:03:16;0.50;99.90
14122;DHT22;7139;48.114;11.442;2022-12-16T11:06:00;0.50;99.90
14122;DHT22;7139;48.114;11.442;2022-12-16T11:08:45;0.50;99.90
14122;DHT22;7139;48.114;11.442;2022-12-16T11:11:30;0.30;99.90
14122;DHT22;7139;48.114;11.442;2022-12-16T11:14:18;0.20;99.90
14122;DHT22;7139;48.114;11.442;2022-12-16T11:17:16;0.20;99.90
14122;DHT22;7139;48.114;11.442;2022-12-16T11:20:13;0.20;99.90
14122;DHT22;7139;48.114;11.442;2022-12-16T11:23:08;0.30;99.90
14122;DHT22;7139;48.114;11.442;2022-12-16T11:26:04;0.30;99.90
14122;DHT22;7139;48.114;11.442;2022-12-16T11:29:05;0.20;99.90
14122;DHT22;7139;48.114;11.442;2022-12-16T11:32:17;0.30;99.90
14122;DHT22;7139;48.114;11.442;2022-12-16T11:35:06;0.40;99.90
14122;DHT22;7139;48.114;11.442;2022-12-16T11:37:56;0.40;99.90
14122;DHT22;7139;48.114;11.442;2022-12-16T11:40:45;0.40;99.90
14122;DHT22;7139;48.114;11.442;2022-12-16T11:43:29;0.40;99.90
14122;DHT22;7139;48.114;11.442;2022-12-16T11:46:20;0.40;99.90
14122;DHT22;7139;48.114;11.442;2022-12-16T11:49:09;0.50;99.90
14122;DHT22;7139;48.114;11.442;2022-12-16T11:52:00;0.60;99.90
14122;DHT22;7139;48.114;11.442;2022-12-16T11:54:53;0.60;99.90
14122;DHT22;7139;48.114;11.442;2022-12-16T11:57:44;0.60;99.90
14122;DHT22;7139;48.114;11.442;2022-12-16T12:00:33;0.60;99.90
14122;DHT22;7139;48.114;11.442;2022-12-16T12:03:22;0.60;99.90
14122;DHT22;7139;48.114;11.442;2022-12-16T12:06:12;0.70;99.90
14122;DHT22;7139;48.114;11.442;2022-12-16T12:09:02;0.70;99.90
14122;DHT22;7139;48.114;11.442;2022-12-16T12:12:12;0.50;99.90
14122;DHT22;7139;48.114;11.442;2022-12-16T12:15:00;0.50;99.90
14122;DHT22;7139;48.114;11.442;2022-12-16T12:17:53;0.40;99.90
14122;DHT22;7139;48.114;11.442;2022-12-16T12:20:43;0.40;99.90
14122;DHT22;7139;48.114;11.442;2022-12-16T12:23:36;0.40;99.90
14122;DHT22;7139;48.114;11.442;2022-12-16T12:26:27;0.50;99.90
14122;DHT22;7139;48.114;11.442;2022-12-16T12:29:18;0.60;99.90
14122;DHT22;7139;48.114;11.442;2022-12-16T12:32:13;0.70;99.90
14122;DHT22;7139;48.114;11.442;2022-12-16T12:35:07;0.70;99.90
14122;DHT22;7139;48.114;11.442;2022-12-16T12:38:02;0.60;99.90
14122;DHT22;7139;48.114;11.442;2022-12-16T12:40:53;0.60;99.90
14122;DHT22;7139;48.114;11.442;2022-12-16T12:43:46;0.50;99.90
14122;DHT22;7139;48.114;11.442;2022-12-16T12:46:42;0.50;99.90
14122;DHT22;7139;48.114;11.442;2022-12-16T12:49:33;0.50;99.90
14122;DHT22;7139;48.114;11.442;2022-12-16T12:52:42;0.40;99.90
14122;DHT22;7139;48.114;11.442;2022-12-16T12:55:33;0.50;99.90
14122;DHT22;7139;48.114;11.442;2022-12-16T12:58:22;0.40;99.90
14122;DHT22;7139;48.114;11.442;2022-12-16T13:01:08;0.50;99.90
14122;DHT22;7139;48.114;11.442;2022-12-16T13:04:03;0.40;99.90
14122;DHT22;7139;48.114;11.442;2022-12-16T13:06:49;0.30;99.90
14122;DHT22;7139;48.114;11.442;2022-12-16T13:09:36;0.30;99.90
14122;DHT22;7139;48.114;11.442;2022-12-16T13:12:27;0.40;99.90
14122;DHT22;7139;48.114;11.442;2022-12-16T13:15:19;0.40;99.90
14122;DHT22;7139;48.114;11.442;2022-12-16T13:18:22;0.50;99.90
14122;DHT22;7139;48.114;11.442;2022-12-16T13:21:46;0.40;99.90
14122;DHT22;7139;48.114;11.442;2022-12-16T13:24:43;0.40;99.90
14122;DHT22;7139;48.114;11.442;2022-12-16T13:27:43;0.50;99.90
14122;DHT22;7139;48.114;11.442;2022-12-16T13:30:29;0.50;99.90
14122;DHT22;7139;48.114;11.442;2022-12-16T13:33:24;0.50;99.90
14122;DHT22;7139;48.114;11.442;2022-12-16T13:36:09;0.50;99.90
14122;DHT22;7139;48.114;11.442;2022-12-16T13:38:57;0.50;99.90
14122;DHT22;7139;48.114;11.442;2022-12-16T13:41:49;0.50;99.90
14122;DHT22;7139;48.114;11.442;2022-12-16T13:44:55;0.40;99.90
14122;DHT22;7139;48.114;11.442;2022-12-16T13:47:58;0.40;99.90
14122;DHT22;7139;48.114;11.442;2022-12-16T13:50:44;0.50;99.90
14122;DHT22;7139;48.114;11.442;2022-12-16T13:53:30;0.50;99.90
14122;DHT22;7139;48.114;11.442;2022-12-16T13:56:22;0.40;99.90
14122;DHT22;7139;48.114;11.442;2022-12-16T13:59:13;0.40;99.90
14122;DHT22;7139;48.114;11.442;2022-12-16T14:01:56;0.40;99.90
14122;DHT22;7139;48.114;11.442;2022-12-16T14:04:45;0.50;99.90
14122;DHT22;7139;48.114;11.442;2022-12-16T14:07:33;0.50;99.90
14122;DHT22;7139;48.114;11.442;2022-12-16T14:10:25;0.30;99.90
14122;DHT22;7139;48.114;11.442;2022-12-16T14:13:20;0.20;99.90
14122;DHT22;7139;48.114;11.442;2022-12-16T14:16:10;0.20;99.90
14122;DHT22;7139;48.114;11.442;2022-12-16T14:19:06;0.20;99.90
14122;DHT22;7139;48.114;11.442;2022-12-16T14:21:59;0.20;99.90
14122;DHT22;7139;48.114;11.442;2022-12-16T14:24:47;0.30;99.90
14122;DHT22;7139;48.114;11.442;2022-12-16T14:27:33;0.30;99.90
14122;DHT22;7139;48.114;11.442;2022-12-16T14:30:21;0.20;99.90
14122;DHT22;7139;48.114;11.442;2022-12-16T14:33:21;0.20;99.90
14122;DHT22;7139;48.114;11.442;2022-12-16T14:36:21;0.20;99.90
14122;DHT22;7139;48.114;11.442;2022-12-16T14:39:09;0.30;99.90
14122;DHT22;7139;48.114;11.442;2022-12-16T14:42:17;0.20;99.90
14122;DHT22;7139;48.114;11.442;2022-12-16T14:45:02;0.10;99.90
14122;DHT22;7139;48.114;11.442;2022-12-16T14:47:48;0.10;99.90
14122;DHT22;7139;48.114;11.442;2022-12-16T14:50:32;0.10;99.90
14122;DHT22;7139;48.114;11.442;2022-12-16T14:53:18;0.00;99.90
14122;DHT22;7139;48.114;11.442;2022-12-16T14:56:17;-0.20;99.90
14122;DHT22;7139;48.114;11.442;2022-12-16T14:59:11;-0.10;99.90
14122;DHT22;7139;48.114;11.442;2022-12-16T15:01:57;-0.10;99.90
14122;DHT22;7139;48.114;11.442;2022-12-16T15:04:46;0.00;99.90
14122;DHT22;7139;48.114;11.442;2022-12-16T15:07:34;0.10;99.90
14122;DHT22;7139;48.114;11.442;2022-12-16T15:10:23;0.00;99.90
14122;DHT22;7139;48.114;11.442;2022-12-16T15:13:13;0.00;99.90
14122;DHT22;7139;48.114;11.442;2022-12-16T15:16:02;0.00;99.90
14122;DHT22;7139;48.114;11.442;2022-12-16T15:18:57;0.00;99.90
14122;DHT22;7139;48.114;11.442;2022-12-16T15:21:43;0.00;99.90
14122;DHT22;7139;48.114;11.442;2022-12-16T15:24:31;0.00;99.90
14122;DHT22;7139;48.114;11.442;2022-12-16T15:27:24;0.00;99.90
14122;DHT22;7139;48.114;11.442;2022-12-16T15:30:38;-0.10;99.90
14122;DHT22;7139;48.114;11.442;2022-12-16T15:33:25;-0.10;99.90
14122;DHT22;7139;48.114;11.442;2022-12-16T15:36:24;-0.10;99.90
14122;DHT22;7139;48.114;11.442;2022-12-16T15:39:17;-0.10;99.90
14122;DHT22;7139;48.114;11.442;2022-12-16T15:42:02;-0.10;99.90
14122;DHT22;7139;48.114;11.442;2022-12-16T15:44:48;-0.10;99.90
14122;DHT22;7139;48.114;11.442;2022-12-16T15:47:35;0.00;99.90
14122;DHT22;7139;48.114;11.442;2022-12-16T15:50:21;-0.20;99.90
14122;DHT22;7139;48.114;11.442;2022-12-16T15:53:27;-0.20;99.90
14122;DHT22;7139;48.114;11.442;2022-12-16T15:56:18;-0.20;99.90
14122;DHT22;7139;48.114;11.442;2022-12-16T15:59:14;-0.20;99.90
14122;DHT22;7139;48.114;11.442;2022-12-16T16:02:05;-0.20;99.90
14122;DHT22;7139;48.114;11.442;2022-12-16T16:04:52;-0.20;99.90
14122;DHT22;7139;48.114;11.442;2022-12-16T16:07:37;-0.20;99.90
14122;DHT22;7139;48.114;11.442;2022-12-16T16:10:22;-0.20;99.90
14122;DHT22;7139;48.114;11.442;2022-12-16T16:13:20;-0.20;99.90
14122;DHT22;7139;48.114;11.442;2022-12-16T16:16:07;-0.20;99.90
14122;DHT22;7139;48.114;11.442;2022-12-16T16:18:52;-0.20;99.90
14122;DHT22;7139;48.114;11.442;2022-12-16T16:21:36;-0.20;99.90
14122;DHT22;7139;48.114;11.442;2022-12-16T16:24:20;-0.20;99.90
14122;DHT22;7139;48.114;11.442;2022-12-16T16:27:09;-0.30;99.90
14122;DHT22;7139;48.114;11.442;2022-12-16T16:29:55;-0.20;99.90
14122;DHT22;7139;48.114;11.442;2022-12-16T16:32:40;-0.20;99.90
14122;DHT22;7139;48.114;11.442;2022-12-16T16:35:35;-0.20;99.90
14122;DHT22;7139;48.114;11.442;2022-12-16T16:38:19;-0.20;99.90
14122;DHT22;7139;48.114;11.442;2022-12-16T16:41:06;-0.20;99.90
14122;DHT22;7139;48.114;11.442;2022-12-16T16:43:48;0.70;99.90
14122;DHT22;7139;48.114;11.442;2022-12-16T16:46:36;8.30;99.90
14122;DHT22;7139;48.114;11.442;2022-12-16T16:49:23;15.70;87.40
14122;DHT22;7139;48.114;11.442;2022-12-16T16:52:10;16.20;72.00
14122;DHT22;7139;48.114;11.442;2022-12-16T16:54:55;14.90;70.50
14122;DHT22;7139;48.114;11.442;2022-12-16T16:57:39;12.50;74.20
14122;DHT22;7139;48.114;11.442;2022-12-16T17:00:23;10.20;80.00
14122;DHT22;7139;48.114;11.442;2022-12-16T17:03:09;8.30;85.50
14122;DHT22;7139;48.114;11.442;2022-12-16T17:05:53;6.70;90.40
14122;DHT22;7139;48.114;11.442;2022-12-16T17:08:37;5.40;92.50
14122;DHT22;7139;48.114;11.442;2022-12-16T17:11:22;4.30;94.40
14122;DHT22;7139;48.114;11.442;2022-12-16T17:14:10;3.40;96.50
14122;DHT22;7139;48.114;11.442;2022-12-16T17:16:54;2.70;98.10
14122;DHT22;7139;48.114;11.442;2022-12-16T17:19:40;2.10;99.50
14122;DHT22;7139;48.114;11.442;2022-12-16T17:22:24;1.60;99.90
14122;DHT22;7139;48.114;11.442;2022-12-16T17:25:09;1.30;99.90
14122;DHT22;7139;48.114;11.442;2022-12-16T17:27:53;1.00;99.90
14122;DHT22;7139;48.114;11.442;2022-12-16T17:30:36;0.80;99.90
14122;DHT22;7139;48.114;11.442;2022-12-16T17:33:20;0.60;99.90
14122;DHT22;7139;48.114;11.442;2022-12-16T17:36:09;0.40;99.90